sensor_id;sensor_type;location;lat;lon;timestamp;temperature;humidity
71879;DHT22;59755;43.834;4.364;2023-04-25T00:01:36;16.50;48.00
71879;DHT22;59755;43.834;4.364;2023-04-25T00:04:03;16.40;48.10
71879;DHT22;59755;43.834;4.364;2023-04-25T00:06:31;16.40;48.30
71879;DHT22;59755;43.834;4.364;2023-04-25T00:08:57;16.40;48.30
71879;DHT22;59755;43.834;4.364;2023-04-25T00:11:23;16.40;48.70
71879;DHT22;59755;43.834;4.364;2023-04-25T00:13:49;16.40;48.50
71879;DHT22;59755;43.834;4.364;2023-04-25T00:16:16;16.40;48.50
71879;DHT22;59755;43.834;4.364;2023-04-25T00:18:42;16.40;48.60
71879;DHT22;59755;43.834;4.364;2023-04-25T00:21:07;16.40;48.60
71879;DHT22;59755;43.834;4.364;2023-04-25T00:23:33;16.40;48.70
71879;DHT22;59755;43.834;4.364;2023-04-25T00:26:01;16.30;48.90
71879;DHT22;59755;43.834;4.364;2023-04-25T00:28:27;16.30;49.10
71879;DHT22;59755;43.834;4.364;2023-04-25T00:30:52;16.20;49.40
71879;DHT22;59755;43.834;4.364;2023-04-25T00:33:18;16.10;49.60
71879;DHT22;59755;43.834;4.364;2023-04-25T00:35:44;16.10;49.70
71879;DHT22;59755;43.834;4.364;2023-04-25T00:38:09;16.20;49.70
71879;DHT22;59755;43.834;4.364;2023-04-25T00:40:35;16.10;50.00
71879;DHT22;59755;43.834;4.364;2023-04-25T00:43:01;16.10;50.00
71879;DHT22;59755;43.834;4.364;2023-04-25T00:45:29;16.20;50.90
71879;DHT22;59755;43.834;4.364;2023-04-25T00:47:55;16.10;52.10
71879;DHT22;59755;43.834;4.364;2023-04-25T00:50:21;15.90;53.80
71879;DHT22;59755;43.834;4.364;2023-04-25T00:52:47;15.80;54.70
71879;DHT22;59755;43.834;4.364;2023-04-25T00:55:13;15.70;55.50
71879;DHT22;59755;43.834;4.364;2023-04-25T00:57:39;15.60;57.30
71879;DHT22;59755;43.834;4.364;2023-04-25T01:00:06;15.50;57.80
71879;DHT22;59755;43.834;4.364;2023-04-25T01:02:32;15.40;58.80
71879;DHT22;59755;43.834;4.364;2023-04-25T01:04:58;15.40;59.60
71879;DHT22;59755;43.834;4.364;2023-04-25T01:07:24;15.40;60.10
71879;DHT22;59755;43.834;4.364;2023-04-25T01:09:51;15.30;59.60
71879;DHT22;59755;43.834;4.364;2023-04-25T01:12:17;15.20;60.10
71879;DHT22;59755;43.834;4.364;2023-04-25T01:14:42;15.20;60.30
71879;DHT22;59755;43.834;4.364;2023-04-25T01:17:08;15.20;59.60
71879;DHT22;59755;43.834;4.364;2023-04-25T01:19:34;15.20;60.80
71879;DHT22;59755;43.834;4.364;2023-04-25T01:21:59;15.20;59.80
71879;DHT22;59755;43.834;4.364;2023-04-25T01:24:26;15.10;60.80
71879;DHT22;59755;43.834;4.364;2023-04-25T01:26:51;15.10;60.60
71879;DHT22;59755;43.834;4.364;2023-04-25T01:29:18;15.00;61.00
71879;DHT22;59755;43.834;4.364;2023-04-25T01:31:44;14.90;61.40
71879;DHT22;59755;43.834;4.364;2023-04-25T01:34:10;14.80;61.00
71879;DHT22;59755;43.834;4.364;2023-04-25T01:36:36;14.80;61.30
71879;DHT22;59755;43.834;4.364;2023-04-25T01:39:02;14.80;62.20
71879;DHT22;59755;43.834;4.364;2023-04-25T01:41:28;14.80;62.10
71879;DHT22;59755;43.834;4.364;2023-04-25T01:43:53;14.80;62.40
71879;DHT22;59755;43.834;4.364;2023-04-25T01:46:19;14.80;62.00
71879;DHT22;59755;43.834;4.364;2023-04-25T01:48:45;14.70;62.00
71879;DHT22;59755;43.834;4.364;2023-04-25T01:51:11;14.80;61.70
71879;DHT22;59755;43.834;4.364;2023-04-25T01:53:37;14.80;61.30
71879;DHT22;59755;43.834;4.364;2023-04-25T01:56:03;14.70;61.60
71879;DHT22;59755;43.834;4.364;2023-04-25T01:58:28;14.60;62.10
71879;DHT22;59755;43.834;4.364;2023-04-25T02:00:54;14.60;61.70
71879;DHT22;59755;43.834;4.364;2023-04-25T02:03:19;14.70;61.80
71879;DHT22;59755;43.834;4.364;2023-04-25T02:05:45;14.70;61.20
71879;DHT22;59755;43.834;4.364;2023-04-25T02:08:10;14.70;60.50
71879;DHT22;59755;43.834;4.364;2023-04-25T02:10:36;14.70;60.60
71879;DHT22;59755;43.834;4.364;2023-04-25T02:13:02;14.70;60.50
71879;DHT22;59755;43.834;4.364;2023-04-25T02:15:28;14.70;60.60
71879;DHT22;59755;43.834;4.364;2023-04-25T02:17:53;14.70;60.30
71879;DHT22;59755;43.834;4.364;2023-04-25T02:20:22;14.80;59.80
71879;DHT22;59755;43.834;4.364;2023-04-25T02:22:48;14.70;59.60
71879;DHT22;59755;43.834;4.364;2023-04-25T02:25:14;14.70;59.40
71879;DHT22;59755;43.834;4.364;2023-04-25T02:27:41;14.80;58.80
71879;DHT22;59755;43.834;4.364;2023-04-25T02:30:07;14.90;59.00
71879;DHT22;59755;43.834;4.364;2023-04-25T02:32:32;14.80;59.30
71879;DHT22;59755;43.834;4.364;2023-04-25T02:34:59;14.80;59.20
71879;DHT22;59755;43.834;4.364;2023-04-25T02:37:32;14.80;59.40
71879;DHT22;59755;43.834;4.364;2023-04-25T02:39:58;14.80;59.20
71879;DHT22;59755;43.834;4.364;2023-04-25T02:42:23;14.80;59.10
71879;DHT22;59755;43.834;4.364;2023-04-25T02:44:49;14.80;59.30
71879;DHT22;59755;43.834;4.364;2023-04-25T02:47:15;14.80;59.50
71879;DHT22;59755;43.834;4.364;2023-04-25T02:49:40;14.80;59.60
71879;DHT22;59755;43.834;4.364;2023-04-25T02:52:06;14.80;59.60
71879;DHT22;59755;43.834;4.364;2023-04-25T02:54:31;14.80;59.50
71879;DHT22;59755;43.834;4.364;2023-04-25T02:56:57;14.70;59.50
71879;DHT22;59755;43.834;4.364;2023-04-25T02:59:23;14.70;59.60
71879;DHT22;59755;43.834;4.364;2023-04-25T03:01:48;14.80;59.40
71879;DHT22;59755;43.834;4.364;2023-04-25T03:04:14;14.80;59.00
71879;DHT22;59755;43.834;4.364;2023-04-25T03:06:39;14.70;59.20
71879;DHT22;59755;43.834;4.364;2023-04-25T03:09:05;14.70;58.80
71879;DHT22;59755;43.834;4.364;2023-04-25T03:11:30;14.70;58.90
71879;DHT22;59755;43.834;4.364;2023-04-25T03:13:56;14.80;58.90
71879;DHT22;59755;43.834;4.364;2023-04-25T03:16:22;14.70;58.90
71879;DHT22;59755;43.834;4.364;2023-04-25T03:18:47;14.70;58.70
71879;DHT22;59755;43.834;4.364;2023-04-25T03:21:14;14.70;59.00
71879;DHT22;59755;43.834;4.364;2023-04-25T03:23:40;14.70;58.80
71879;DHT22;59755;43.834;4.364;2023-04-25T03:26:06;14.80;58.90
71879;DHT22;59755;43.834;4.364;2023-04-25T03:28:31;14.70;58.70
71879;DHT22;59755;43.834;4.364;2023-04-25T03:30:57;14.70;58.90
71879;DHT22;59755;43.834;4.364;2023-04-25T03:33:22;14.80;58.90
71879;DHT22;59755;43.834;4.364;2023-04-25T03:35:48;14.80;58.80
71879;DHT22;59755;43.834;4.364;2023-04-25T03:38:15;14.80;58.70
71879;DHT22;59755;43.834;4.364;2023-04-25T03:40:40;14.70;58.70
71879;DHT22;59755;43.834;4.364;2023-04-25T03:43:06;14.70;58.60
71879;DHT22;59755;43.834;4.364;2023-04-25T03:45:32;14.70;58.20
71879;DHT22;59755;43.834;4.364;2023-04-25T03:47:58;14.70;58.10
71879;DHT22;59755;43.834;4.364;2023-04-25T03:50:23;14.70;58.00
71879;DHT22;59755;43.834;4.364;2023-04-25T03:52:49;14.70;58.00
71879;DHT22;59755;43.834;4.364;2023-04-25T03:55:15;14.80;58.10
71879;DHT22;59755;43.834;4.364;2023-04-25T03:57:40;14.80;57.60
71879;DHT22;59755;43.834;4.364;2023-04-25T04:00:06;14.80;57.50
71879;DHT22;59755;43.834;4.364;2023-04-25T04:02:32;14.80;57.70
71879;DHT22;59755;43.834;4.364;2023-04-25T04:05:00;14.80;57.80
71879;DHT22;59755;43.834;4.364;2023-04-25T04:07:25;14.80;58.10
71879;DHT22;59755;43.834;4.364;2023-04-25T04:09:51;14.70;58.20
71879;DHT22;59755;43.834;4.364;2023-04-25T04:12:16;14.80;58.40
71879;DHT22;59755;43.834;4.364;2023-04-25T04:14:42;14.70;58.30
71879;DHT22;59755;43.834;4.364;2023-04-25T04:17:08;14.70;58.60
71879;DHT22;59755;43.834;4.364;2023-04-25T04:19:33;14.70;58.60
71879;DHT22;59755;43.834;4.364;2023-04-25T04:21:59;14.80;58.50
71879;DHT22;59755;43.834;4.364;2023-04-25T04:24:25;14.70;58.60
71879;DHT22;59755;43.834;4.364;2023-04-25T04:26:50;14.70;58.60
71879;DHT22;59755;43.834;4.364;2023-04-25T04:29:17;14.70;58.90
71879;DHT22;59755;43.834;4.364;2023-04-25T04:31:50;14.60;58.70
71879;DHT22;59755;43.834;4.364;2023-04-25T04:34:16;14.60;58.90
71879;DHT22;59755;43.834;4.364;2023-04-25T04:36:42;14.60;59.00
71879;DHT22;59755;43.834;4.364;2023-04-25T04:39:07;14.60;58.90
71879;DHT22;59755;43.834;4.364;2023-04-25T04:41:34;14.60;58.90
71879;DHT22;59755;43.834;4.364;2023-04-25T04:44:00;14.60;59.10
71879;DHT22;59755;43.834;4.364;2023-04-25T04:46:26;14.60;59.20
71879;DHT22;59755;43.834;4.364;2023-04-25T04:48:53;14.60;59.50
71879;DHT22;59755;43.834;4.364;2023-04-25T04:51:19;14.60;59.50
71879;DHT22;59755;43.834;4.364;2023-04-25T04:53:45;14.70;59.80
71879;DHT22;59755;43.834;4.364;2023-04-25T04:56:11;14.60;59.90
71879;DHT22;59755;43.834;4.364;2023-04-25T04:58:37;14.70;59.70
71879;DHT22;59755;43.834;4.364;2023-04-25T05:01:02;14.70;59.40
71879;DHT22;59755;43.834;4.364;2023-04-25T05:03:28;14.70;59.20
71879;DHT22;59755;43.834;4.364;2023-04-25T05:05:54;14.70;58.90
71879;DHT22;59755;43.834;4.364;2023-04-25T05:08:19;14.70;58.80
71879;DHT22;59755;43.834;4.364;2023-04-25T05:10:45;14.60;59.00
71879;DHT22;59755;43.834;4.364;2023-04-25T05:13:10;14.50;59.20
71879;DHT22;59755;43.834;4.364;2023-04-25T05:15:36;14.60;59.10
71879;DHT22;59755;43.834;4.364;2023-04-25T05:18:02;14.60;59.30
71879;DHT22;59755;43.834;4.364;2023-04-25T05:20:27;14.60;59.30
71879;DHT22;59755;43.834;4.364;2023-04-25T05:22:53;14.60;59.20
71879;DHT22;59755;43.834;4.364;2023-04-25T05:25:18;14.60;59.00
71879;DHT22;59755;43.834;4.364;2023-04-25T05:27:44;14.60;59.00
71879;DHT22;59755;43.834;4.364;2023-04-25T05:30:10;14.60;58.80
71879;DHT22;59755;43.834;4.364;2023-04-25T05:32:35;14.70;58.70
71879;DHT22;59755;43.834;4.364;2023-04-25T05:35:01;14.60;59.00
71879;DHT22;59755;43.834;4.364;2023-04-25T05:37:28;14.60;59.30
71879;DHT22;59755;43.834;4.364;2023-04-25T05:39:55;14.60;59.50
71879;DHT22;59755;43.834;4.364;2023-04-25T05:42:21;14.60;59.60
71879;DHT22;59755;43.834;4.364;2023-04-25T05:44:46;14.60;59.50
71879;DHT22;59755;43.834;4.364;2023-04-25T05:47:12;14.60;59.40
71879;DHT22;59755;43.834;4.364;2023-04-25T05:49:38;14.70;59.40
71879;DHT22;59755;43.834;4.364;2023-04-25T05:52:03;14.70;59.40
71879;DHT22;59755;43.834;4.364;2023-04-25T05:54:29;14.70;59.40
71879;DHT22;59755;43.834;4.364;2023-04-25T05:56:56;14.80;59.30
71879;DHT22;59755;43.834;4.364;2023-04-25T05:59:21;14.80;59.30
71879;DHT22;59755;43.834;4.364;2023-04-25T06:01:47;14.70;59.70
71879;DHT22;59755;43.834;4.364;2023-04-25T06:04:12;14.70;59.70
71879;DHT22;59755;43.834;4.364;2023-04-25T06:06:38;14.80;59.60
71879;DHT22;59755;43.834;4.364;2023-04-25T06:09:04;14.80;59.30
71879;DHT22;59755;43.834;4.364;2023-04-25T06:11:29;14.80;59.70
71879;DHT22;59755;43.834;4.364;2023-04-25T06:13:55;14.70;60.00
71879;DHT22;59755;43.834;4.364;2023-04-25T06:16:21;14.70;59.70
71879;DHT22;59755;43.834;4.364;2023-04-25T06:18:46;14.70;59.80
71879;DHT22;59755;43.834;4.364;2023-04-25T06:21:12;14.70;59.90
71879;DHT22;59755;43.834;4.364;2023-04-25T06:23:37;14.80;60.10
71879;DHT22;59755;43.834;4.364;2023-04-25T06:26:03;14.80;60.30
71879;DHT22;59755;43.834;4.364;2023-04-25T06:28:28;14.80;60.50
71879;DHT22;59755;43.834;4.364;2023-04-25T06:30:54;14.80;60.60
71879;DHT22;59755;43.834;4.364;2023-04-25T06:33:20;14.70;60.90
71879;DHT22;59755;43.834;4.364;2023-04-25T06:35:46;14.70;60.90
71879;DHT22;59755;43.834;4.364;2023-04-25T06:38:12;14.80;60.90
71879;DHT22;59755;43.834;4.364;2023-04-25T06:40:38;14.70;61.10
71879;DHT22;59755;43.834;4.364;2023-04-25T06:43:03;14.70;61.20
71879;DHT22;59755;43.834;4.364;2023-04-25T06:45:29;14.60;61.40
71879;DHT22;59755;43.834;4.364;2023-04-25T06:47:54;14.70;61.30
71879;DHT22;59755;43.834;4.364;2023-04-25T06:50:20;14.80;60.90
71879;DHT22;59755;43.834;4.364;2023-04-25T06:52:46;14.80;60.90
71879;DHT22;59755;43.834;4.364;2023-04-25T06:55:11;14.80;61.10
71879;DHT22;59755;43.834;4.364;2023-04-25T06:57:37;14.80;61.10
71879;DHT22;59755;43.834;4.364;2023-04-25T07:00:03;14.80;60.60
71879;DHT22;59755;43.834;4.364;2023-04-25T07:02:30;14.80;60.70
71879;DHT22;59755;43.834;4.364;2023-04-25T07:04:56;14.90;60.50
71879;DHT22;59755;43.834;4.364;2023-04-25T07:07:25;15.00;60.10
71879;DHT22;59755;43.834;4.364;2023-04-25T07:09:51;15.00;59.80
71879;DHT22;59755;43.834;4.364;2023-04-25T07:12:16;15.10;59.50
71879;DHT22;59755;43.834;4.364;2023-04-25T07:14:42;15.00;59.30
71879;DHT22;59755;43.834;4.364;2023-04-25T07:17:07;15.00;59.50
71879;DHT22;59755;43.834;4.364;2023-04-25T07:19:33;15.10;59.40
71879;DHT22;59755;43.834;4.364;2023-04-25T07:21:58;15.20;59.10
71879;DHT22;59755;43.834;4.364;2023-04-25T07:24:24;15.30;58.80
71879;DHT22;59755;43.834;4.364;2023-04-25T07:26:50;15.40;58.60
71879;DHT22;59755;43.834;4.364;2023-04-25T07:29:15;15.40;58.30
71879;DHT22;59755;43.834;4.364;2023-04-25T07:31:41;15.60;58.10
71879;DHT22;59755;43.834;4.364;2023-04-25T07:34:06;15.60;57.50
71879;DHT22;59755;43.834;4.364;2023-04-25T07:36:32;15.60;57.70
71879;DHT22;59755;43.834;4.364;2023-04-25T07:38:58;15.80;57.60
71879;DHT22;59755;43.834;4.364;2023-04-25T07:41:23;15.80;57.30
71879;DHT22;59755;43.834;4.364;2023-04-25T07:43:49;15.90;56.90
71879;DHT22;59755;43.834;4.364;2023-04-25T07:46:15;16.00;56.40
71879;DHT22;59755;43.834;4.364;2023-04-25T07:48:40;16.10;56.20
71879;DHT22;59755;43.834;4.364;2023-04-25T07:51:06;16.20;56.00
71879;DHT22;59755;43.834;4.364;2023-04-25T07:53:32;16.40;55.70
71879;DHT22;59755;43.834;4.364;2023-04-25T07:56:00;16.60;55.30
71879;DHT22;59755;43.834;4.364;2023-04-25T07:58:25;16.60;55.50
71879;DHT22;59755;43.834;4.364;2023-04-25T08:00:51;16.60;55.70
71879;DHT22;59755;43.834;4.364;2023-04-25T08:03:16;16.60;55.50
71879;DHT22;59755;43.834;4.364;2023-04-25T08:05:42;16.70;55.30
71879;DHT22;59755;43.834;4.364;2023-04-25T08:08:08;16.70;54.80
71879;DHT22;59755;43.834;4.364;2023-04-25T08:10:33;16.80;54.10
71879;DHT22;59755;43.834;4.364;2023-04-25T08:12:59;16.70;53.60
71879;DHT22;59755;43.834;4.364;2023-04-25T08:15:25;16.70;52.80
71879;DHT22;59755;43.834;4.364;2023-04-25T08:17:51;16.90;52.60
71879;DHT22;59755;43.834;4.364;2023-04-25T08:20:17;17.00;51.90
71879;DHT22;59755;43.834;4.364;2023-04-25T08:22:43;17.10;51.70
71879;DHT22;59755;43.834;4.364;2023-04-25T08:25:08;17.20;50.80
71879;DHT22;59755;43.834;4.364;2023-04-25T08:27:34;17.30;50.20
71879;DHT22;59755;43.834;4.364;2023-04-25T08:30:00;17.40;49.90
71879;DHT22;59755;43.834;4.364;2023-04-25T08:32:26;17.60;49.00
71879;DHT22;59755;43.834;4.364;2023-04-25T08:34:51;17.70;48.10
71879;DHT22;59755;43.834;4.364;2023-04-25T08:37:19;17.70;49.00
71879;DHT22;59755;43.834;4.364;2023-04-25T08:39:45;17.60;48.60
71879;DHT22;59755;43.834;4.364;2023-04-25T08:42:13;17.60;48.50
71879;DHT22;59755;43.834;4.364;2023-04-25T08:44:39;17.70;47.60
71879;DHT22;59755;43.834;4.364;2023-04-25T08:47:05;17.70;47.20
71879;DHT22;59755;43.834;4.364;2023-04-25T08:49:34;17.80;47.00
71879;DHT22;59755;43.834;4.364;2023-04-25T08:52:00;18.00;46.60
71879;DHT22;59755;43.834;4.364;2023-04-25T08:54:27;18.10;47.10
71879;DHT22;59755;43.834;4.364;2023-04-25T08:56:54;18.20;47.00
71879;DHT22;59755;43.834;4.364;2023-04-25T08:59:20;18.10;46.00
71879;DHT22;59755;43.834;4.364;2023-04-25T09:01:46;18.20;45.80
71879;DHT22;59755;43.834;4.364;2023-04-25T09:04:12;18.40;45.80
71879;DHT22;59755;43.834;4.364;2023-04-25T09:06:37;18.40;45.30
71879;DHT22;59755;43.834;4.364;2023-04-25T09:09:03;18.50;45.00
71879;DHT22;59755;43.834;4.364;2023-04-25T09:11:30;18.50;45.30
71879;DHT22;59755;43.834;4.364;2023-04-25T09:16:56;18.50;45.10
71879;DHT22;59755;43.834;4.364;2023-04-25T09:19:23;18.60;45.40
71879;DHT22;59755;43.834;4.364;2023-04-25T09:21:49;18.90;45.30
71879;DHT22;59755;43.834;4.364;2023-04-25T09:24:15;19.00;44.90
71879;DHT22;59755;43.834;4.364;2023-04-25T09:26:40;18.90;45.00
71879;DHT22;59755;43.834;4.364;2023-04-25T09:29:07;18.80;45.00
71879;DHT22;59755;43.834;4.364;2023-04-25T09:31:33;18.70;45.50
71879;DHT22;59755;43.834;4.364;2023-04-25T09:33:59;18.80;46.00
71879;DHT22;59755;43.834;4.364;2023-04-25T09:36:27;18.80;45.70
71879;DHT22;59755;43.834;4.364;2023-04-25T09:38:53;18.90;45.20
71879;DHT22;59755;43.834;4.364;2023-04-25T09:41:22;18.90;46.20
71879;DHT22;59755;43.834;4.364;2023-04-25T09:43:48;19.20;45.30
71879;DHT22;59755;43.834;4.364;2023-04-25T09:46:14;19.40;44.10
71879;DHT22;59755;43.834;4.364;2023-04-25T09:48:40;19.10;44.70
71879;DHT22;59755;43.834;4.364;2023-04-25T09:51:13;19.10;44.50
71879;DHT22;59755;43.834;4.364;2023-04-25T09:53:43;19.30;44.40
71879;DHT22;59755;43.834;4.364;2023-04-25T09:56:10;19.60;43.70
71879;DHT22;59755;43.834;4.364;2023-04-25T09:58:36;19.60;43.30
71879;DHT22;59755;43.834;4.364;2023-04-25T10:01:03;19.60;44.00
71879;DHT22;59755;43.834;4.364;2023-04-25T10:03:30;19.90;43.80
71879;DHT22;59755;43.834;4.364;2023-04-25T10:05:56;20.10;43.30
71879;DHT22;59755;43.834;4.364;2023-04-25T10:08:24;20.30;43.50
71879;DHT22;59755;43.834;4.364;2023-04-25T10:10:52;20.50;43.40
71879;DHT22;59755;43.834;4.364;2023-04-25T10:13:17;20.60;42.40
71879;DHT22;59755;43.834;4.364;2023-04-25T10:15:43;20.50;42.50
71879;DHT22;59755;43.834;4.364;2023-04-25T10:18:10;20.70;42.60
71879;DHT22;59755;43.834;4.364;2023-04-25T10:20:36;20.90;41.90
71879;DHT22;59755;43.834;4.364;2023-04-25T10:23:12;21.20;41.10
71879;DHT22;59755;43.834;4.364;2023-04-25T10:25:38;20.80;42.20
71879;DHT22;59755;43.834;4.364;2023-04-25T10:28:04;20.80;42.80
71879;DHT22;59755;43.834;4.364;2023-04-25T10:30:30;21.00;42.10
71879;DHT22;59755;43.834;4.364;2023-04-25T10:32:55;20.90;42.60
71879;DHT22;59755;43.834;4.364;2023-04-25T10:35:25;21.30;41.60
71879;DHT22;59755;43.834;4.364;2023-04-25T10:38:13;21.30;41.20
71879;DHT22;59755;43.834;4.364;2023-04-25T10:40:37;21.80;40.60
71879;DHT22;59755;43.834;4.364;2023-04-25T10:43:49;21.90;40.40
71879;DHT22;59755;43.834;4.364;2023-04-25T10:45:52;22.40;39.60
71879;DHT22;59755;43.834;4.364;2023-04-25T10:48:27;23.10;38.50
71879;DHT22;59755;43.834;4.364;2023-04-25T10:51:08;22.80;38.20
71879;DHT22;59755;43.834;4.364;2023-04-25T10:53:35;22.10;39.30
71879;DHT22;59755;43.834;4.364;2023-04-25T10:56:05;22.10;39.90
71879;DHT22;59755;43.834;4.364;2023-04-25T10:58:34;23.40;38.20
71879;DHT22;59755;43.834;4.364;2023-04-25T11:01:00;23.90;37.30
71879;DHT22;59755;43.834;4.364;2023-04-25T11:03:26;23.40;36.90
71879;DHT22;59755;43.834;4.364;2023-04-25T11:05:52;23.60;37.00
71879;DHT22;59755;43.834;4.364;2023-04-25T11:08:20;23.00;38.10
71879;DHT22;59755;43.834;4.364;2023-04-25T11:10:49;23.50;36.60
71879;DHT22;59755;43.834;4.364;2023-04-25T11:13:14;24.40;35.40
71879;DHT22;59755;43.834;4.364;2023-04-25T11:15:40;25.20;34.30
71879;DHT22;59755;43.834;4.364;2023-04-25T11:18:06;24.80;34.70
71879;DHT22;59755;43.834;4.364;2023-04-25T11:20:31;24.20;35.00
71879;DHT22;59755;43.834;4.364;2023-04-25T11:22:57;23.90;35.60
71879;DHT22;59755;43.834;4.364;2023-04-25T11:25:24;23.20;36.50
71879;DHT22;59755;43.834;4.364;2023-04-25T11:27:57;23.40;36.40
71879;DHT22;59755;43.834;4.364;2023-04-25T11:30:24;23.80;36.30
71879;DHT22;59755;43.834;4.364;2023-04-25T11:32:50;25.20;34.30
71879;DHT22;59755;43.834;4.364;2023-04-25T11:35:17;25.50;33.10
71879;DHT22;59755;43.834;4.364;2023-04-25T11:37:43;25.90;33.40
71879;DHT22;59755;43.834;4.364;2023-04-25T11:40:09;27.30;31.80
71879;DHT22;59755;43.834;4.364;2023-04-25T11:42:45;27.70;30.70
71879;DHT22;59755;43.834;4.364;2023-04-25T11:45:11;27.60;30.60
71879;DHT22;59755;43.834;4.364;2023-04-25T11:47:37;28.50;29.60
71879;DHT22;59755;43.834;4.364;2023-04-25T11:50:03;29.30;28.90
71879;DHT22;59755;43.834;4.364;2023-04-25T11:52:42;28.40;29.50
71879;DHT22;59755;43.834;4.364;2023-04-25T11:55:08;28.80;28.80
71879;DHT22;59755;43.834;4.364;2023-04-25T11:57:35;28.80;29.20
71879;DHT22;59755;43.834;4.364;2023-04-25T12:00:08;28.80;28.70
71879;DHT22;59755;43.834;4.364;2023-04-25T12:02:37;29.80;27.70
71879;DHT22;59755;43.834;4.364;2023-04-25T12:05:05;30.50;27.30
71879;DHT22;59755;43.834;4.364;2023-04-25T12:07:31;31.20;27.10
71879;DHT22;59755;43.834;4.364;2023-04-25T12:09:57;31.70;26.20
71879;DHT22;59755;43.834;4.364;2023-04-25T12:12:26;31.80;26.10
71879;DHT22;59755;43.834;4.364;2023-04-25T12:14:52;31.50;25.90
71879;DHT22;59755;43.834;4.364;2023-04-25T12:17:18;31.20;26.30
71879;DHT22;59755;43.834;4.364;2023-04-25T12:19:43;30.40;27.00
71879;DHT22;59755;43.834;4.364;2023-04-25T12:22:19;29.40;28.10
71879;DHT22;59755;43.834;4.364;2023-04-25T12:24:45;29.10;28.60
71879;DHT22;59755;43.834;4.364;2023-04-25T12:27:10;29.30;28.70
71879;DHT22;59755;43.834;4.364;2023-04-25T12:29:49;30.10;28.10
71879;DHT22;59755;43.834;4.364;2023-04-25T12:32:15;30.90;27.50
71879;DHT22;59755;43.834;4.364;2023-04-25T12:34:40;31.20;27.20
71879;DHT22;59755;43.834;4.364;2023-04-25T12:37:06;31.50;26.30
71879;DHT22;59755;43.834;4.364;2023-04-25T12:39:32;30.80;26.70
71879;DHT22;59755;43.834;4.364;2023-04-25T12:41:57;31.20;26.30
71879;DHT22;59755;43.834;4.364;2023-04-25T12:44:24;30.70;27.00
71879;DHT22;59755;43.834;4.364;2023-04-25T12:46:50;31.30;26.80
71879;DHT22;59755;43.834;4.364;2023-04-25T12:49:15;30.90;27.30
71879;DHT22;59755;43.834;4.364;2023-04-25T12:51:41;32.20;25.90
71879;DHT22;59755;43.834;4.364;2023-04-25T12:54:07;32.20;26.00
71879;DHT22;59755;43.834;4.364;2023-04-25T12:56:33;30.50;27.30
71879;DHT22;59755;43.834;4.364;2023-04-25T12:58:59;30.10;27.60
71879;DHT22;59755;43.834;4.364;2023-04-25T13:01:25;29.50;28.20
71879;DHT22;59755;43.834;4.364;2023-04-25T13:03:51;30.20;27.30
71879;DHT22;59755;43.834;4.364;2023-04-25T13:06:17;28.70;29.10
71879;DHT22;59755;43.834;4.364;2023-04-25T13:08:43;29.10;28.70
71879;DHT22;59755;43.834;4.364;2023-04-25T13:11:08;29.70;28.30
71879;DHT22;59755;43.834;4.364;2023-04-25T13:13:34;28.70;28.90
71879;DHT22;59755;43.834;4.364;2023-04-25T13:16:01;27.30;30.20
71879;DHT22;59755;43.834;4.364;2023-04-25T13:18:27;26.60;31.50
71879;DHT22;59755;43.834;4.364;2023-04-25T13:20:53;29.20;28.50
71879;DHT22;59755;43.834;4.364;2023-04-25T13:23:19;30.30;27.50
71879;DHT22;59755;43.834;4.364;2023-04-25T13:25:46;31.90;25.80
71879;DHT22;59755;43.834;4.364;2023-04-25T13:28:12;30.10;27.20
71879;DHT22;59755;43.834;4.364;2023-04-25T13:30:37;28.90;28.50
71879;DHT22;59755;43.834;4.364;2023-04-25T13:33:03;27.80;29.60
71879;DHT22;59755;43.834;4.364;2023-04-25T13:35:29;27.90;29.70
71879;DHT22;59755;43.834;4.364;2023-04-25T13:37:55;28.70;28.50
71879;DHT22;59755;43.834;4.364;2023-04-25T13:40:20;28.20;28.70
71879;DHT22;59755;43.834;4.364;2023-04-25T13:42:46;29.40;27.60
71879;DHT22;59755;43.834;4.364;2023-04-25T13:45:12;30.80;25.90
71879;DHT22;59755;43.834;4.364;2023-04-25T13:47:37;31.90;25.00
71879;DHT22;59755;43.834;4.364;2023-04-25T13:50:03;32.30;24.20
71879;DHT22;59755;43.834;4.364;2023-04-25T13:52:30;31.90;24.90
71879;DHT22;59755;43.834;4.364;2023-04-25T13:54:57;32.80;24.40
71879;DHT22;59755;43.834;4.364;2023-04-25T13:57:23;32.80;24.50
71879;DHT22;59755;43.834;4.364;2023-04-25T13:59:48;33.00;24.40
71879;DHT22;59755;43.834;4.364;2023-04-25T14:02:14;33.10;24.20
71879;DHT22;59755;43.834;4.364;2023-04-25T14:04:40;31.60;25.40
71879;DHT22;59755;43.834;4.364;2023-04-25T14:07:05;29.10;27.60
71879;DHT22;59755;43.834;4.364;2023-04-25T14:09:31;30.40;26.40
71879;DHT22;59755;43.834;4.364;2023-04-25T14:11:57;30.00;26.50
71879;DHT22;59755;43.834;4.364;2023-04-25T14:14:23;30.60;26.20
71879;DHT22;59755;43.834;4.364;2023-04-25T14:16:49;31.10;25.70
71879;DHT22;59755;43.834;4.364;2023-04-25T14:19:15;30.10;26.50
71879;DHT22;59755;43.834;4.364;2023-04-25T14:21:41;29.60;27.00
71879;DHT22;59755;43.834;4.364;2023-04-25T14:24:08;30.20;26.50
71879;DHT22;59755;43.834;4.364;2023-04-25T14:26:34;30.80;25.70
71879;DHT22;59755;43.834;4.364;2023-04-25T14:29:03;30.10;26.50
71879;DHT22;59755;43.834;4.364;2023-04-25T14:31:28;29.90;26.60
71879;DHT22;59755;43.834;4.364;2023-04-25T14:33:54;29.20;27.10
71879;DHT22;59755;43.834;4.364;2023-04-25T14:36:19;30.20;26.20
71879;DHT22;59755;43.834;4.364;2023-04-25T14:38:45;30.90;25.60
71879;DHT22;59755;43.834;4.364;2023-04-25T14:41:11;31.10;25.00
71879;DHT22;59755;43.834;4.364;2023-04-25T14:43:37;31.00;24.90
71879;DHT22;59755;43.834;4.364;2023-04-25T14:46:05;30.10;25.70
71879;DHT22;59755;43.834;4.364;2023-04-25T14:48:31;28.90;26.90
71879;DHT22;59755;43.834;4.364;2023-04-25T14:50:57;27.40;28.30
71879;DHT22;59755;43.834;4.364;2023-04-25T14:53:23;26.80;28.90
71879;DHT22;59755;43.834;4.364;2023-04-25T14:55:48;26.10;29.60
71879;DHT22;59755;43.834;4.364;2023-04-25T14:58:14;25.80;29.50
71879;DHT22;59755;43.834;4.364;2023-04-25T15:00:40;25.80;29.50
71879;DHT22;59755;43.834;4.364;2023-04-25T15:03:06;25.90;29.60
71879;DHT22;59755;43.834;4.364;2023-04-25T15:05:33;25.80;29.60
71879;DHT22;59755;43.834;4.364;2023-04-25T15:07:58;25.50;30.20
71879;DHT22;59755;43.834;4.364;2023-04-25T15:10:24;25.00;30.40
71879;DHT22;59755;43.834;4.364;2023-04-25T15:12:49;24.60;30.80
71879;DHT22;59755;43.834;4.364;2023-04-25T15:15:15;24.20;30.60
71879;DHT22;59755;43.834;4.364;2023-04-25T15:17:41;23.80;31.30
71879;DHT22;59755;43.834;4.364;2023-04-25T15:20:08;23.80;31.10
71879;DHT22;59755;43.834;4.364;2023-04-25T15:22:35;23.70;31.20
71879;DHT22;59755;43.834;4.364;2023-04-25T15:25:01;23.40;31.50
71879;DHT22;59755;43.834;4.364;2023-04-25T15:27:27;23.40;31.20